createdAt,value
2023-04-27T00:02:21.874Z,100624.88
2023-04-27T00:05:24.819Z,100616.25
2023-04-27T00:08:27.594Z,100617.09
2023-04-27T00:11:30.240Z,100632.63
2023-04-27T00:14:32.936Z,100624.47
2023-04-27T00:17:36.062Z,100629.34
2023-04-27T00:20:38.942Z,100625.69
2023-04-27T00:23:41.791Z,100631.38
2023-04-27T00:26:44.354Z,100628.19
2023-04-27T00:29:48.430Z,100619.97
2023-04-27T00:32:51.249Z,100624.84
2023-04-27T00:35:53.954Z,100617.63
2023-04-27T00:38:59.685Z,100622.34
2023-04-27T00:42:02.353Z,100619.03
2023-04-27T00:45:06.210Z,100614.88
2023-04-27T00:48:10.425Z,100610.97
2023-04-27T00:51:13.368Z,100615.72
2023-04-27T00:54:18.178Z,100609.28
2023-04-27T00:57:23.927Z,100613.41
2023-04-27T01:00:26.624Z,100616.34
2023-04-27T01:03:30.867Z,100633.34
2023-04-27T01:06:33.819Z,100627.66
2023-04-27T01:09:36.809Z,100630.50
2023-04-27T01:12:39.456Z,100635.88
2023-04-27T01:15:42.206Z,100637.06
2023-04-27T01:18:47.879Z,100636.13
2023-04-27T01:21:50.655Z,100629.97
2023-04-27T01:24:53.877Z,100627.59
2023-04-27T01:27:56.605Z,100629.38
2023-04-27T01:31:02.383Z,100626.28
2023-04-27T01:34:04.982Z,100633.25
2023-04-27T01:37:07.653Z,100639.72
2023-04-27T01:40:10.642Z,100632.88
2023-04-27T01:43:13.452Z,100646.31
2023-04-27T01:46:16.396Z,100642.91
2023-04-27T01:49:22.276Z,100640.97
2023-04-27T01:52:25.279Z,100638.19
2023-04-27T01:55:28.433Z,100637.28
2023-04-27T01:58:31.218Z,100646.44
2023-04-27T02:01:34.693Z,100643.84
2023-04-27T02:04:38.137Z,100648.53
2023-04-27T02:07:41.101Z,100639.91
2023-04-27T02:10:43.725Z,100645.31
2023-04-27T02:13:46.808Z,100646.09
2023-04-27T02:16:49.579Z,100654.41
2023-04-27T02:19:52.429Z,100656.38
2023-04-27T02:22:55.068Z,100656.78
2023-04-27T02:25:57.745Z,100662.53
2023-04-27T02:29:00.791Z,100661.19
2023-04-27T02:32:03.924Z,100655.78
2023-04-27T02:35:07.058Z,100661.28
2023-04-27T02:38:10.552Z,100659.75
2023-04-27T02:41:13.214Z,100660.37
2023-04-27T02:44:16.188Z,100658.97
2023-04-27T02:47:20.067Z,100656.78
2023-04-27T02:50:22.688Z,100662.59
2023-04-27T02:53:25.349Z,100659.06
2023-04-27T02:56:28.072Z,100653.38
2023-04-27T02:59:30.926Z,100662.38
2023-04-27T03:02:33.881Z,100668.63
2023-04-27T03:05:37.469Z,100662.69
2023-04-27T03:08:51.039Z,100664.66
2023-04-27T03:11:53.733Z,100661.75
2023-04-27T03:14:56.644Z,100670.63
2023-04-27T03:18:00.254Z,100670.94
2023-04-27T03:21:11.113Z,100678.91
2023-04-27T03:24:13.986Z,100673.91
2023-04-27T03:27:19.562Z,100682.84
2023-04-27T03:30:22.195Z,100683.44
2023-04-27T03:33:27.192Z,100679.91
2023-04-27T03:36:29.867Z,100688.63
2023-04-27T03:39:32.510Z,100686.31
2023-04-27T03:42:35.194Z,100687.87
2023-04-27T03:45:38.189Z,100688.81
2023-04-27T03:48:41.107Z,100695.66
2023-04-27T03:51:44.199Z,100696.50
2023-04-27T03:54:46.863Z,100695.03
2023-04-27T03:57:49.661Z,100691.59
2023-04-27T04:00:52.402Z,100706.22
2023-04-27T04:03:55.244Z,100705.50
2023-04-27T04:06:58.027Z,100702.72
2023-04-27T04:10:00.938Z,100712.06
2023-04-27T04:13:03.618Z,100717.69
2023-04-27T04:16:08.072Z,100719.97
2023-04-27T04:19:11.298Z,100716.06
2023-04-27T04:22:14.216Z,100727.72
2023-04-27T04:25:16.937Z,100727.03
2023-04-27T04:28:19.564Z,100731.72
2023-04-27T04:31:22.303Z,100733.62
2023-04-27T04:34:25.088Z,100735.31
2023-04-27T04:37:28.316Z,100737.22
2023-04-27T04:40:31.252Z,100738.28
2023-04-27T04:43:34.104Z,100737.25
2023-04-27T04:46:37.558Z,100738.06
2023-04-27T04:49:40.481Z,100733.00
2023-04-27T04:52:43.342Z,100734.34
2023-04-27T04:55:46.024Z,100743.66
2023-04-27T04:58:51.718Z,100748.34
2023-04-27T05:01:56.027Z,100744.31
2023-04-27T05:05:00.224Z,100738.31
2023-04-27T05:08:03.104Z,100742.94
2023-04-27T05:11:05.906Z,100740.69
2023-04-27T05:14:08.543Z,100746.91
2023-04-27T05:17:11.244Z,100747.75
2023-04-27T05:20:14.165Z,100748.84
2023-04-27T05:23:17.292Z,100760.41
2023-04-27T05:26:19.935Z,100736.88
2023-04-27T05:29:23.032Z,100761.38
2023-04-27T05:32:26.252Z,100757.69
2023-04-27T05:35:32.099Z,100758.31
2023-04-27T05:38:36.309Z,100763.00
2023-04-27T05:41:40.597Z,100758.97
2023-04-27T05:44:44.009Z,100764.41
2023-04-27T05:47:46.877Z,100766.66
2023-04-27T05:51:03.254Z,100772.56
2023-04-27T05:54:05.948Z,100771.38
2023-04-27T05:57:08.668Z,100768.63
2023-04-27T06:00:12.895Z,100777.38
2023-04-27T06:03:15.724Z,100772.00
2023-04-27T06:06:18.648Z,100779.16
2023-04-27T06:09:21.833Z,100785.94
2023-04-27T06:12:25.268Z,100780.38
2023-04-27T06:15:27.962Z,100787.66
2023-04-27T06:18:31.836Z,100790.13
2023-04-27T06:21:34.834Z,100795.59
2023-04-27T06:24:38.928Z,100791.66
2023-04-27T06:27:41.746Z,100799.09
2023-04-27T06:30:44.502Z,100801.47
2023-04-27T06:33:47.241Z,100804.28
2023-04-27T06:36:49.906Z,100809.66
2023-04-27T06:39:52.692Z,100807.88
2023-04-27T06:42:55.436Z,100809.84
2023-04-27T06:45:58.242Z,100811.47
2023-04-27T06:49:01.788Z,100814.75
2023-04-27T06:52:05.957Z,100815.84
2023-04-27T06:55:09.016Z,100813.63
2023-04-27T06:58:11.898Z,100813.72
2023-04-27T07:01:14.621Z,100821.09
2023-04-27T07:04:20.716Z,100812.09
2023-04-27T07:07:23.719Z,100810.31
2023-04-27T07:10:26.470Z,100817.81
2023-04-27T07:13:30.284Z,100812.34
2023-04-27T07:16:33.432Z,100819.31
2023-04-27T07:19:37.322Z,100811.25
2023-04-27T07:22:40.123Z,100818.22
2023-04-27T07:25:43.677Z,100813.69
2023-04-27T07:28:47.528Z,100818.97
2023-04-27T07:31:52.184Z,100814.84
2023-04-27T07:34:56.180Z,100823.59
2023-04-27T07:38:02.999Z,100822.44
2023-04-27T07:41:06.338Z,100823.75
2023-04-27T07:44:12.556Z,100825.94
2023-04-27T07:47:15.295Z,100816.00
2023-04-27T07:50:22.366Z,100830.37
2023-04-27T07:53:25.056Z,100818.09
2023-04-27T07:56:28.309Z,100817.03
2023-04-27T07:59:31.722Z,100818.00
2023-04-27T08:02:34.973Z,100818.53
2023-04-27T08:05:38.411Z,100819.06
2023-04-27T08:08:41.645Z,100812.81
2023-04-27T08:11:44.595Z,100818.78
2023-04-27T08:14:50.093Z,100816.09
2023-04-27T08:17:52.861Z,100814.03
2023-04-27T08:20:55.996Z,100816.41
2023-04-27T08:23:58.786Z,100820.53
2023-04-27T08:27:07.076Z,100816.50
2023-04-27T08:30:10.366Z,100820.63
2023-04-27T08:33:13.545Z,100816.34
2023-04-27T08:36:16.479Z,100819.28
2023-04-27T08:39:20.103Z,100819.81
2023-04-27T08:42:22.925Z,100822.84
2023-04-27T08:45:26.304Z,100820.28
2023-04-27T08:48:32.140Z,100818.19
2023-04-27T08:51:35.606Z,100810.00
2023-04-27T08:54:38.320Z,100810.53
2023-04-27T08:57:53.949Z,100810.13
2023-04-27T09:00:56.676Z,100790.41
2023-04-27T09:04:02.080Z,100807.94
2023-04-27T09:07:12.914Z,100807.97
2023-04-27T09:10:16.505Z,100815.59
2023-04-27T09:13:22.533Z,100801.81
2023-04-27T09:16:28.451Z,100802.53
2023-04-27T09:19:34.615Z,100805.63
2023-04-27T09:22:48.694Z,100796.63
2023-04-27T09:25:55.232Z,100801.19
2023-04-27T09:28:58.008Z,100791.28
2023-04-27T09:32:16.799Z,100793.09
2023-04-27T09:35:30.059Z,100792.34
2023-04-27T09:38:33.373Z,100801.88
2023-04-27T09:41:36.773Z,100798.28
2023-04-27T09:44:39.453Z,100791.91
2023-04-27T09:47:42.418Z,100797.19
2023-04-27T09:50:50.081Z,100788.97
2023-04-27T09:53:54.744Z,100791.12
2023-04-27T09:57:12.815Z,100792.28
2023-04-27T10:00:46.561Z,100801.38
2023-04-27T10:04:14.430Z,100787.31
2023-04-27T10:07:20.223Z,100797.19
2023-04-27T10:10:23.043Z,100793.53
2023-04-27T10:13:31.913Z,100785.19
2023-04-27T10:17:03.754Z,100783.91
2023-04-27T10:20:07.745Z,100784.25
2023-04-27T10:23:10.743Z,100781.94
2023-04-27T10:26:13.381Z,100776.00
2023-04-27T10:29:18.300Z,100775.06
2023-04-27T10:32:26.462Z,100782.87
2023-04-27T10:35:40.687Z,100780.84
2023-04-27T10:38:43.499Z,100769.31
2023-04-27T10:42:04.892Z,100763.72
2023-04-27T10:45:08.413Z,100765.87
2023-04-27T10:48:15.887Z,100765.25
2023-04-27T10:51:18.704Z,100764.97
2023-04-27T10:54:28.653Z,100757.72
2023-04-27T10:57:34.642Z,100759.31
2023-04-27T11:00:44.167Z,100757.53
2023-04-27T11:03:59.109Z,100751.44
2023-04-27T11:07:04.655Z,100758.09
2023-04-27T11:10:08.680Z,100754.31
2023-04-27T11:13:13.987Z,100751.06
2023-04-27T11:16:17.134Z,100744.25
2023-04-27T11:19:19.815Z,100745.75
2023-04-27T11:22:22.436Z,100740.62
2023-04-27T11:25:29.285Z,100745.34
2023-04-27T11:28:32.312Z,100740.38
2023-04-27T11:31:49.482Z,100745.41
2023-04-27T11:34:54.398Z,100740.88
2023-04-27T11:37:59.951Z,100734.72
2023-04-27T11:41:06.841Z,100732.41
2023-04-27T11:44:10.734Z,100730.38
2023-04-27T11:47:19.330Z,100725.47
2023-04-27T11:50:25.037Z,100728.41
2023-04-27T11:53:32.930Z,100737.81
2023-04-27T11:56:42.803Z,100736.44
2023-04-27T11:59:45.759Z,100735.97
2023-04-27T12:02:48.668Z,100729.31
2023-04-27T12:05:54.590Z,100731.81
2023-04-27T12:08:58.122Z,100736.28
2023-04-27T12:12:01.022Z,100739.50
2023-04-27T12:15:03.974Z,100723.47
2023-04-27T12:18:07.143Z,100724.97
2023-04-27T12:21:13.229Z,100725.13
2023-04-27T12:24:16.461Z,100723.94
2023-04-27T12:27:22.266Z,100722.53
2023-04-27T12:30:25.042Z,100712.06
2023-04-27T12:33:27.726Z,100724.16
2023-04-27T12:36:30.397Z,100721.06
2023-04-27T12:39:36.715Z,100722.06
2023-04-27T12:42:42.873Z,100722.00
2023-04-27T12:45:48.540Z,100714.19
2023-04-27T12:48:54.174Z,100708.25
2023-04-27T12:51:58.232Z,100717.66
2023-04-27T12:55:02.304Z,100708.03
2023-04-27T12:58:08.100Z,100705.69
2023-04-27T13:01:15.242Z,100708.56
2023-04-27T13:04:20.848Z,100708.09
2023-04-27T13:07:24.203Z,100709.66
2023-04-27T13:10:36.819Z,100710.41
2023-04-27T13:13:42.473Z,100708.00
2023-04-27T13:17:02.309Z,100700.66
2023-04-27T13:20:07.495Z,100695.88
2023-04-27T13:23:10.601Z,100702.47
2023-04-27T13:26:13.807Z,100698.41
2023-04-27T13:29:18.105Z,100698.66
2023-04-27T13:32:21.191Z,100694.91
2023-04-27T13:35:24.990Z,100694.75
2023-04-27T13:38:27.830Z,100700.50
2023-04-27T13:41:31.789Z,100697.03
2023-04-27T13:44:34.592Z,100702.06
2023-04-27T13:47:37.479Z,100692.53
2023-04-27T13:50:40.130Z,100698.66
2023-04-27T13:53:42.798Z,100694.87
2023-04-27T13:56:45.860Z,100692.34
2023-04-27T13:59:48.809Z,100693.03
2023-04-27T14:02:51.667Z,100699.13
2023-04-27T14:05:56.313Z,100693.41
2023-04-27T14:08:58.997Z,100682.97
2023-04-27T14:12:01.753Z,100688.37
2023-04-27T14:15:05.296Z,100685.28
2023-04-27T14:18:09.083Z,100698.72
2023-04-27T14:21:11.906Z,100690.09
2023-04-27T14:24:15.039Z,100680.97
2023-04-27T14:27:18.015Z,100679.50
2023-04-27T14:30:34.036Z,100682.09
2023-04-27T14:33:36.802Z,100689.62
2023-04-27T14:36:39.506Z,100668.69
2023-04-27T14:39:45.009Z,100681.84
2023-04-27T14:42:47.998Z,100686.78
2023-04-27T14:45:55.511Z,100675.25
2023-04-27T14:49:02.462Z,100676.19
2023-04-27T14:52:06.773Z,100675.97
2023-04-27T14:55:10.025Z,100677.94
2023-04-27T14:58:12.783Z,100673.59
2023-04-27T15:01:15.765Z,100681.66
2023-04-27T15:04:18.933Z,100676.44
2023-04-27T15:07:21.732Z,100679.59
2023-04-27T15:10:24.584Z,100676.31
2023-04-27T15:13:27.934Z,100674.75
2023-04-27T15:16:30.813Z,100673.72
2023-04-27T15:19:34.039Z,100676.56
2023-04-27T15:22:37.226Z,100674.19
2023-04-27T15:25:39.943Z,100677.34
2023-04-27T15:28:42.840Z,100676.66
2023-04-27T15:31:47.507Z,100674.50
2023-04-27T15:34:50.293Z,100674.72
2023-04-27T15:37:53.028Z,100670.16
2023-04-27T15:40:55.891Z,100671.22
2023-04-27T15:43:59.027Z,100669.84
2023-04-27T15:47:02.280Z,100675.41
2023-04-27T15:50:06.272Z,100672.84
2023-04-27T15:53:09.100Z,100680.63
2023-04-27T15:56:12.032Z,100666.84
2023-04-27T15:59:14.994Z,100666.47
2023-04-27T16:02:18.802Z,100661.69
2023-04-27T16:05:21.718Z,100663.75
2023-04-27T16:08:27.010Z,100666.00
2023-04-27T16:11:32.744Z,100667.75
2023-04-27T16:14:41.848Z,100670.41
2023-04-27T16:17:44.742Z,100678.63
2023-04-27T16:20:47.469Z,100673.22
2023-04-27T16:23:50.290Z,100676.78
2023-04-27T16:26:52.973Z,100673.38
2023-04-27T16:29:56.578Z,100679.03
2023-04-27T16:32:59.314Z,100674.19
2023-04-27T16:36:02.005Z,100680.75
2023-04-27T16:39:05.281Z,100680.53
2023-04-27T16:42:08.341Z,100678.09
2023-04-27T16:45:11.615Z,100682.34
2023-04-27T16:48:14.346Z,100677.56
2023-04-27T16:51:17.026Z,100674.19
2023-04-27T16:54:21.154Z,100675.59
2023-04-27T16:57:23.922Z,100669.91
2023-04-27T17:00:27.661Z,100669.56
2023-04-27T17:03:30.836Z,100680.87
2023-04-27T17:06:34.968Z,100679.41
2023-04-27T17:09:38.183Z,100676.50
2023-04-27T17:12:41.062Z,100680.16
2023-04-27T17:15:44.668Z,100688.19
2023-04-27T17:18:48.167Z,100683.78
2023-04-27T17:21:51.132Z,100682.06
2023-04-27T17:24:54.475Z,100677.69
2023-04-27T17:27:58.068Z,100687.69
2023-04-27T17:31:02.282Z,100688.19
2023-04-27T17:34:05.394Z,100688.69
2023-04-27T17:37:08.680Z,100688.56
2023-04-27T17:40:12.368Z,100680.44
2023-04-27T17:43:15.361Z,100686.75
2023-04-27T17:46:18.661Z,100706.41
2023-04-27T17:49:22.750Z,100703.66
2023-04-27T17:52:25.585Z,100704.25
2023-04-27T17:55:33.974Z,100697.44
2023-04-27T17:58:36.850Z,100707.28
2023-04-27T18:01:40.031Z,100719.59
2023-04-27T18:04:43.482Z,100714.84
2023-04-27T18:07:46.795Z,100723.09
2023-04-27T18:10:49.806Z,100728.37
2023-04-27T18:13:54.639Z,100731.63
2023-04-27T18:17:00.665Z,100731.03
2023-04-27T18:20:09.352Z,100726.84
2023-04-27T18:23:13.058Z,100740.81
2023-04-27T18:26:17.207Z,100742.88
2023-04-27T18:29:20.147Z,100750.84
2023-04-27T18:32:23.386Z,100757.78
2023-04-27T18:35:26.212Z,100759.84
2023-04-27T18:38:29.491Z,100760.03
2023-04-27T18:41:33.135Z,100767.91
2023-04-27T18:44:36.718Z,100771.44
2023-04-27T18:47:40.050Z,100768.56
2023-04-27T18:50:42.999Z,100770.84
2023-04-27T18:53:45.817Z,100770.69
2023-04-27T18:56:53.047Z,100777.50
2023-04-27T18:59:56.319Z,100771.31
2023-04-27T19:02:59.482Z,100778.00
2023-04-27T19:06:02.972Z,100779.44
2023-04-27T19:09:05.761Z,100784.16
2023-04-27T19:12:09.240Z,100779.91
2023-04-27T19:15:14.670Z,100786.56
2023-04-27T19:18:17.480Z,100791.97
2023-04-27T19:21:20.327Z,100785.63
2023-04-27T19:24:24.981Z,100792.84
2023-04-27T19:27:28.260Z,100792.84
2023-04-27T19:30:31.314Z,100791.03
2023-04-27T19:33:34.169Z,100794.88
2023-04-27T19:36:36.949Z,100794.88
2023-04-27T19:39:39.864Z,100796.69
2023-04-27T19:42:42.909Z,100801.31
2023-04-27T19:45:45.956Z,100799.78
2023-04-27T19:48:48.935Z,100793.37
2023-04-27T19:51:51.689Z,100805.09
2023-04-27T19:54:54.822Z,100808.94
2023-04-27T19:57:57.759Z,100813.41
2023-04-27T20:01:00.540Z,100820.09
2023-04-27T20:04:03.461Z,100817.16
2023-04-27T20:07:06.665Z,100813.66
2023-04-27T20:10:09.395Z,100812.31
2023-04-27T20:13:12.308Z,100812.53
2023-04-27T20:16:15.360Z,100825.28
2023-04-27T20:19:19.457Z,100818.53
2023-04-27T20:22:22.931Z,100831.03
2023-04-27T20:25:26.167Z,100830.56
2023-04-27T20:28:30.491Z,100832.97
2023-04-27T20:31:33.551Z,100835.69
2023-04-27T20:34:36.334Z,100830.00
2023-04-27T20:37:40.224Z,100829.50
2023-04-27T20:40:42.970Z,100832.12
2023-04-27T20:43:46.154Z,100832.28
2023-04-27T20:46:49.201Z,100841.69
2023-04-27T20:49:51.929Z,100836.56
2023-04-27T20:52:54.604Z,100836.00
2023-04-27T20:55:57.371Z,100844.78
2023-04-27T20:59:00.210Z,100839.69
2023-04-27T21:02:03.218Z,100845.72
2023-04-27T21:05:06.332Z,100839.91
2023-04-27T21:08:09.056Z,100841.84
2023-04-27T21:11:12.250Z,100839.50
2023-04-27T21:14:15.028Z,100844.91
2023-04-27T21:17:18.042Z,100834.59
2023-04-27T21:20:21.055Z,100845.03
2023-04-27T21:23:23.839Z,100841.38
2023-04-27T21:26:27.026Z,100836.97
2023-04-27T21:29:34.932Z,100830.34
2023-04-27T21:32:40.958Z,100832.22
2023-04-27T21:35:43.769Z,100839.22
2023-04-27T21:38:47.336Z,100838.03
2023-04-27T21:41:51.508Z,100843.16
2023-04-27T21:44:55.482Z,100849.78
2023-04-27T21:48:01.301Z,100842.28
2023-04-27T21:51:04.154Z,100843.13
2023-04-27T21:54:07.244Z,100847.13
2023-04-27T21:57:12.724Z,100852.47
2023-04-27T22:00:18.345Z,100865.13
2023-04-27T22:03:22.001Z,100860.13
2023-04-27T22:06:25.783Z,100860.13
2023-04-27T22:09:28.866Z,100858.69
2023-04-27T22:12:31.652Z,100860.09
2023-04-27T22:15:34.590Z,100874.41
2023-04-27T22:18:37.429Z,100870.34
2023-04-27T22:21:43.056Z,100868.31
2023-04-27T22:24:46.094Z,100867.34
2023-04-27T22:27:52.855Z,100865.44
2023-04-27T22:30:56.015Z,100866.03
2023-04-27T22:33:59.027Z,100865.81
2023-04-27T22:37:02.570Z,100869.38
2023-04-27T22:40:06.056Z,100875.25
2023-04-27T22:43:08.685Z,100876.25
2023-04-27T22:46:11.418Z,100879.41
2023-04-27T22:49:15.358Z,100874.44
2023-04-27T22:52:18.342Z,100880.91
2023-04-27T22:55:21.381Z,100888.84
2023-04-27T22:58:24.101Z,100888.22
2023-04-27T23:01:26.781Z,100884.87
2023-04-27T23:04:33.806Z,100879.78
2023-04-27T23:07:37.352Z,100874.69
2023-04-27T23:10:41.194Z,100874.69
2023-04-27T23:13:44.712Z,100874.19
2023-04-27T23:16:50.751Z,100874.63
2023-04-27T23:19:53.401Z,100876.59
2023-04-27T23:22:59.206Z,100867.25
2023-04-27T23:26:02.617Z,100863.16
2023-04-27T23:29:05.658Z,100865.75
2023-04-27T23:32:08.850Z,100855.47
2023-04-27T23:35:11.711Z,100856.41
2023-04-27T23:38:14.509Z,100858.28
2023-04-27T23:41:17.418Z,100849.84
2023-04-27T23:44:20.360Z,100840.78
2023-04-27T23:47:23.275Z,100837.88
2023-04-27T23:50:26.167Z,100831.00
2023-04-27T23:53:29.154Z,100828.19
2023-04-27T23:56:32.051Z,100829.34
2023-04-27T23:59:35.686Z,100829.97
